Time;durP1;ratioP1;P1;durP2;ratioP2;P2;SDS_P1;SDS_P2;PMS_P1;PMS_P2;Temp;Humidity;BMP_temperature;BMP_pressure;BME280_temperature;BME280_humidity;BME280_pressure;Samples;Min_cycle;Max_cycle;Signal;HPM_P1;HPM_P2
2023/03/05 00:02:06;;;;;;;;;;;9.70;99.90;;;;;;5092991;28;20084;-71
2023/03/05 00:04:32;;;;;;;3.30;1.20;;;9.80;99.90;;;;;;5093084;28;20304;-72
2023/03/05 00:06:58;;;;;;;2.33;1.10;;;9.70;99.90;;;;;;5092489;28;20293;-71
2023/03/05 00:09:24;;;;;;;1.60;1.10;;;9.70;99.90;;;;;;5092612;28;20055;-72
2023/03/05 00:11:50;;;;;;;5.23;1.50;;;9.80;99.90;;;;;;5092527;28;20025;-72
2023/03/05 00:14:16;;;;;;;2.22;1.20;;;9.70;99.90;;;;;;5091135;28;20028;-73
2023/03/05 00:16:42;;;;;;;2.15;1.40;;;9.70;99.90;;;;;;5092581;28;20020;-72
2023/03/05 00:19:10;;;;;;;2.15;1.08;;;9.70;99.90;;;;;;5092934;28;20574;-70
2023/03/05 00:21:38;;;;;;;3.63;1.50;;;9.80;99.90;;;;;;5092124;28;20036;-72
2023/03/05 00:24:09;;;;;;;2.15;1.10;;;9.80;99.90;;;;;;5093054;28;20028;-67
2023/03/05 00:26:37;;;;;;;3.45;1.00;;;9.80;99.90;;;;;;5096210;28;20047;-71
2023/03/05 00:29:06;;;;;;;3.67;1.17;;;9.70;99.90;;;;;;5096182;28;20391;-72
2023/03/05 00:31:35;;;;;;;2.38;1.15;;;9.70;99.90;;;;;;5096139;28;20027;-72
2023/03/05 00:34:12;;;;;;;4.00;1.20;;;9.70;99.90;;;;;;5096084;28;20020;-67
2023/03/05 00:36:40;;;;;;;2.25;1.23;;;9.70;99.90;;;;;;5096371;28;20043;-72
2023/03/05 00:39:07;;;;;;;3.22;1.10;;;9.70;99.90;;;;;;5096042;28;20125;-71
2023/03/05 00:41:33;;;;;;;2.13;1.05;;;9.70;99.90;;;;;;5094006;28;20074;-72
2023/03/05 00:44:00;;;;;;;2.33;1.10;;;9.70;99.90;;;;;;5095850;28;20047;-73
2023/03/05 00:46:26;;;;;;;2.50;1.30;;;9.70;99.90;;;;;;5095869;28;20028;-71
2023/03/05 00:48:54;;;;;;;1.83;1.13;;;9.60;99.90;;;;;;5095706;28;20038;-72
2023/03/05 00:51:21;;;;;;;2.45;1.20;;;9.50;99.90;;;;;;5094260;28;20434;-73
2023/03/05 00:53:47;;;;;;;3.55;1.48;;;9.60;99.90;;;;;;5077261;28;20482;-72
2023/03/05 00:56:15;;;;;;;3.15;1.13;;;9.60;99.90;;;;;;5095572;28;20031;-71
2023/03/05 00:58:44;;;;;;;1.70;0.90;;;9.60;99.90;;;;;;5095611;28;20031;-71
2023/03/05 01:01:16;;;;;;;2.60;1.20;;;9.60;99.90;;;;;;5094144;28;20446;-72
2023/03/05 01:03:42;;;;;;;3.60;1.33;;;9.50;99.90;;;;;;5095457;28;20179;-72
2023/03/05 01:06:11;;;;;;;3.22;1.20;;;9.50;99.90;;;;;;5095196;28;20107;-72
2023/03/05 01:08:38;;;;;;;3.05;1.20;;;9.50;99.90;;;;;;5095057;28;20134;-72
2023/03/05 01:11:06;;;;;;;3.88;1.40;;;9.40;99.90;;;;;;5094842;28;20028;-71
2023/03/05 01:13:32;;;;;;;3.35;1.40;;;9.40;99.90;;;;;;5095546;28;20024;-72
2023/03/05 01:16:00;;;;;;;;;;;9.50;99.90;;;;;;5095480;28;20066;-71
2023/03/05 01:18:26;;;;;;;1.98;1.02;;;9.50;99.90;;;;;;5094798;28;20560;-72
2023/03/05 01:20:52;;;;;;;2.60;1.45;;;9.50;99.90;;;;;;5077028;28;20031;-72
2023/03/05 01:23:20;;;;;;;1.90;1.20;;;9.50;99.90;;;;;;5095179;28;20039;-71
2023/03/05 01:25:56;;;;;;;2.75;1.30;;;9.50;99.90;;;;;;5095127;28;20297;-71
2023/03/05 01:28:22;;;;;;;3.08;1.17;;;9.50;99.90;;;;;;5094970;28;20079;-72
2023/03/05 01:30:48;;;;;;;2.37;1.23;;;9.50;99.90;;;;;;5093413;28;20483;-72
2023/03/05 01:33:15;;;;;;;1.98;1.13;;;9.50;99.90;;;;;;5095255;28;20266;-71
2023/03/05 01:35:47;;;;;;;4.18;1.35;;;9.60;99.90;;;;;;5094248;28;20027;-71
2023/03/05 01:38:14;;;;;;;4.10;1.50;;;9.60;99.90;;;;;;5094828;28;20349;-71
2023/03/05 01:40:41;;;;;;;2.25;1.30;;;9.60;99.90;;;;;;5094121;28;20019;-71
2023/03/05 01:43:10;;;;;;;;;;;9.60;99.90;;;;;;5094458;28;20063;-70
2023/03/05 01:45:37;;;;;;;2.40;1.20;;;9.60;99.90;;;;;;5094688;28;19908;-70
2023/03/05 01:48:05;;;;;;;1.95;1.17;;;9.70;99.90;;;;;;5092940;28;20035;-72
2023/03/05 01:50:32;;;;;;;2.70;1.40;;;9.70;99.90;;;;;;5094373;28;20024;-73
2023/03/05 01:53:04;;;;;;;2.53;1.40;;;9.60;99.90;;;;;;5094330;28;20471;-71
2023/03/05 01:55:33;;;;;;;2.30;1.20;;;9.60;99.90;;;;;;5073676;28;20028;-71
2023/03/05 01:58:05;;;;;;;8.23;1.77;;;9.60;99.90;;;;;;5073830;28;20448;-72
2023/03/05 02:00:45;;;;;;;4.18;1.30;;;9.60;99.90;;;;;;5072524;28;20128;-71
2023/03/05 02:03:13;;;;;;;2.65;1.35;;;9.60;99.90;;;;;;5072352;28;20032;-72
2023/03/05 02:05:43;;;;;;;2.47;1.20;;;9.60;99.90;;;;;;5072373;28;20028;-72
2023/03/05 02:08:11;;;;;;;2.10;1.20;;;9.70;99.90;;;;;;5073866;28;20104;-72
2023/03/05 02:10:44;;;;;;;3.08;1.30;;;9.70;99.90;;;;;;5072012;28;20408;-72
2023/03/05 02:13:13;;;;;;;3.38;1.20;;;9.70;99.90;;;;;;5073512;28;20021;-72
2023/03/05 02:15:40;;;;;;;3.20;1.00;;;9.70;99.90;;;;;;5073507;28;20053;-72
2023/03/05 02:18:08;;;;;;;3.33;1.30;;;9.60;99.90;;;;;;5072374;28;20025;-71
2023/03/05 02:20:56;;;;;;;3.70;1.20;;;9.60;99.90;;;;;;5071946;28;20028;-72
2023/03/05 02:23:26;;;;;;;1.77;1.10;;;9.60;99.90;;;;;;5073318;28;20481;-72
2023/03/05 02:25:53;;;;;;;5.45;1.40;;;9.70;99.90;;;;;;5073397;28;20021;-71
2023/03/05 02:28:43;;;;;;;3.22;1.30;;;9.60;99.90;;;;;;5071882;28;20028;-72
2023/03/05 02:31:23;;;;;;;4.18;1.30;;;9.60;99.90;;;;;;5072606;28;20028;-71
2023/03/05 02:33:51;;;;;;;1.95;1.20;;;9.60;99.90;;;;;;5073081;28;20378;-72
2023/03/05 02:36:18;;;;;;;3.40;1.30;;;9.60;99.90;;;;;;5073466;28;20460;-72
2023/03/05 02:38:45;;;;;;;;;;;9.60;99.90;;;;;;5073640;28;20137;-73
2023/03/05 02:41:13;;;;;;;3.03;1.05;;;9.60;99.90;;;;;;5071307;28;20375;-72
2023/03/05 02:43:39;;;;;;;2.55;1.25;;;9.60;99.90;;;;;;5075661;28;20126;-66
2023/03/05 02:46:06;;;;;;;3.43;1.27;;;9.60;99.90;;;;;;5084604;28;20020;-72
2023/03/05 02:48:33;;;;;;;2.95;1.27;;;9.60;99.90;;;;;;5072395;28;20021;-72
2023/03/05 02:51:01;;;;;;;4.60;1.33;;;9.50;99.90;;;;;;5076752;28;20067;-68
2023/03/05 02:53:27;;;;;;;6.10;1.48;;;9.50;99.90;;;;;;5086317;28;20099;-67
2023/03/05 02:55:53;;;;;;;3.80;1.17;;;9.50;99.90;;;;;;5073758;28;20082;-72
2023/03/05 02:58:19;;;;;;;4.18;1.70;;;9.50;99.90;;;;;;5071471;28;20032;-72
2023/03/05 03:00:48;;;;;;;2.47;1.20;;;9.50;99.90;;;;;;5072646;28;20103;-71
2023/03/05 03:03:14;;;;;;;2.60;1.38;;;9.50;99.90;;;;;;5072789;28;20480;-71
2023/03/05 03:05:41;;;;;;;3.17;1.40;;;9.50;99.90;;;;;;5072457;28;20035;-72
2023/03/05 03:08:07;;;;;;;6.72;1.50;;;9.50;99.90;;;;;;5088826;28;20024;-72
2023/03/05 03:10:33;;;;;;;2.60;1.20;;;9.50;99.90;;;;;;5092851;28;20026;-73
2023/03/05 03:13:03;;;;;;;2.92;1.48;;;9.50;99.90;;;;;;5091285;28;20274;-72
2023/03/05 03:15:29;;;;;;;4.72;1.30;;;9.50;99.90;;;;;;5093244;28;20115;-72
2023/03/05 03:17:56;;;;;;;4.07;1.42;;;9.50;99.90;;;;;;5093178;28;20028;-71
2023/03/05 03:20:24;;;;;;;3.25;1.30;;;9.40;99.90;;;;;;5092612;28;20154;-72
2023/03/05 03:22:50;;;;;;;7.45;1.70;;;9.40;99.90;;;;;;5092748;28;20074;-72
2023/03/05 03:25:20;;;;;;;4.82;1.70;;;9.40;99.90;;;;;;5075598;28;20021;-71
2023/03/05 03:27:46;;;;;;;7.80;2.13;;;9.50;99.90;;;;;;5072192;28;20059;-70
2023/03/05 03:30:13;;;;;;;5.95;1.48;;;9.60;99.90;;;;;;5072312;28;20100;-72
2023/03/05 03:32:39;;;;;;;3.70;1.73;;;9.60;99.90;;;;;;5072278;28;20472;-72
2023/03/05 03:35:06;;;;;;;6.55;1.80;;;9.70;99.90;;;;;;5072770;28;20031;-71
2023/03/05 03:37:32;;;;;;;5.43;1.75;;;9.70;99.90;;;;;;5072266;28;20166;-72
2023/03/05 03:39:58;;;;;;;5.30;1.67;;;9.70;99.90;;;;;;5072280;28;20456;-72
2023/03/05 03:42:25;;;;;;;5.83;1.90;;;9.70;99.90;;;;;;5071936;28;20032;-72
2023/03/05 03:44:51;;;;;;;12.67;3.63;;;9.70;99.90;;;;;;5072707;28;20134;-71
2023/03/05 03:47:20;;;;;;;6.53;1.55;;;9.60;99.90;;;;;;5072587;28;20100;-71
2023/03/05 03:49:46;;;;;;;5.40;1.80;;;9.60;99.90;;;;;;5104333;28;20127;-71
2023/03/05 03:52:12;;;;;;;4.57;1.60;;;9.60;99.90;;;;;;5070775;28;20117;-73
2023/03/05 03:54:38;;;;;;;6.03;1.60;;;9.50;99.90;;;;;;5083935;28;20070;-72
2023/03/05 03:57:05;;;;;;;3.65;1.55;;;9.50;99.90;;;;;;5092433;28;20097;-72
2023/03/05 03:59:31;;;;;;;5.10;1.80;;;9.50;99.90;;;;;;5095593;28;20422;-71
2023/03/05 04:01:57;;;;;;;5.22;1.63;;;9.50;99.90;;;;;;5095091;28;20032;-71
2023/03/05 04:04:25;;;;;;;5.45;2.00;;;9.40;99.90;;;;;;5095028;28;20158;-72
2023/03/05 04:06:52;;;;;;;5.63;1.80;;;9.40;99.90;;;;;;5096179;28;20024;-74
2023/03/05 04:09:20;;;;;;;5.63;1.90;;;9.40;99.90;;;;;;5095006;28;20065;-72
2023/03/05 04:11:46;;;;;;;3.90;1.73;;;9.40;99.90;;;;;;5096249;28;20119;-71
2023/03/05 04:14:13;;;;;;;;;;;9.40;99.90;;;;;;5096707;28;20024;-70
2023/03/05 04:16:39;;;;;;;4.27;1.77;;;9.30;99.90;;;;;;5089793;28;19916;-72
2023/03/05 04:19:05;;;;;;;5.15;1.83;;;9.30;99.90;;;;;;5075951;28;20020;-71
2023/03/05 04:21:31;;;;;;;8.43;1.60;;;9.20;99.90;;;;;;5075872;28;20380;-69
2023/03/05 04:23:57;;;;;;;5.95;1.75;;;9.10;99.90;;;;;;5080636;28;20044;-71
2023/03/05 04:26:23;;;;;;;3.30;1.67;;;9.10;99.90;;;;;;5095936;28;20020;-72
2023/03/05 04:28:50;;;;;;;4.37;2.00;;;9.10;99.90;;;;;;5094597;28;20114;-71
2023/03/05 04:31:16;;;;;;;3.60;2.00;;;9.20;99.90;;;;;;5096155;28;20027;-71
2023/03/05 04:33:42;;;;;;;5.47;2.35;;;9.20;99.90;;;;;;5096356;28;20021;-72
2023/03/05 04:36:08;;;;;;;4.40;2.10;;;9.20;99.90;;;;;;5095855;28;20035;-72
2023/03/05 04:38:36;;;;;;;;;;;9.20;99.90;;;;;;5096024;28;20020;-72
2023/03/05 04:41:02;;;;;;;;;;;9.20;99.90;;;;;;5095927;28;19908;-72
2023/03/05 04:43:29;;;;;;;4.25;1.73;;;9.20;99.90;;;;;;5128292;27;19942;-72
2023/03/05 04:45:55;;;;;;;7.10;2.03;;;9.20;99.90;;;;;;5096006;28;20097;-73
2023/03/05 04:48:21;;;;;;;3.80;2.00;;;9.10;99.90;;;;;;5095445;28;20020;-72
2023/03/05 04:50:48;;;;;;;5.93;2.63;;;9.20;99.90;;;;;;5095635;28;20020;-71
2023/03/05 04:53:14;;;;;;;4.47;1.67;;;9.20;99.90;;;;;;5095952;28;20020;-72
2023/03/05 04:55:42;;;;;;;7.18;2.08;;;9.20;99.90;;;;;;5095743;28;20035;-73
2023/03/05 04:58:09;;;;;;;6.32;1.98;;;9.20;99.90;;;;;;5095218;28;20032;-72
2023/03/05 05:00:36;;;;;;;4.65;1.98;;;9.30;99.90;;;;;;5094204;28;20020;-71
2023/03/05 05:03:05;;;;;;;7.32;2.30;;;9.30;99.90;;;;;;5095690;28;20506;-71
2023/03/05 05:05:32;;;;;;;5.70;2.60;;;9.20;99.90;;;;;;5095427;28;20021;-72
2023/03/05 05:07:58;;;;;;;8.85;3.00;;;9.20;99.90;;;;;;5093704;28;20547;-72
2023/03/05 05:10:25;;;;;;;9.40;3.72;;;9.20;99.90;;;;;;5094786;28;20032;-72
2023/03/05 05:12:52;;;;;;;6.65;2.92;;;9.20;99.90;;;;;;5093608;28;20036;-71
2023/03/05 05:15:20;;;;;;;9.50;3.45;;;9.20;99.90;;;;;;5094967;28;20066;-72
2023/03/05 05:17:46;;;;;;;8.07;3.70;;;9.10;99.90;;;;;;5094987;28;20032;-72
2023/03/05 05:20:15;;;;;;;13.05;3.95;;;9.10;99.90;;;;;;5095389;28;20088;-71
2023/03/05 05:22:43;;;;;;;8.25;3.60;;;9.10;99.90;;;;;;5094989;28;20040;-71
2023/03/05 05:25:11;;;;;;;10.30;3.30;;;9.10;99.90;;;;;;5094880;28;20054;-72
2023/03/05 05:27:38;;;;;;;8.18;2.75;;;9.00;99.90;;;;;;5093323;28;20032;-71
2023/03/05 05:30:07;;;;;;;8.02;2.70;;;9.10;99.90;;;;;;5095245;28;20031;-72
2023/03/05 05:32:36;;;;;;;11.02;3.65;;;9.10;99.90;;;;;;5095230;28;20023;-71
2023/03/05 05:35:02;;;;;;;6.10;2.30;;;9.10;99.90;;;;;;5094833;28;20171;-72
2023/03/05 05:37:30;;;;;;;7.30;2.70;;;9.20;99.90;;;;;;5094519;28;20016;-71
2023/03/05 05:39:56;;;;;;;9.32;3.15;;;9.30;99.90;;;;;;5094898;28;20109;-67
2023/03/05 05:42:25;;;;;;;5.83;2.47;;;9.30;99.90;;;;;;5094269;28;20036;-68
2023/03/05 05:44:51;;;;;;;7.75;2.65;;;9.40;99.90;;;;;;5093040;28;20100;-68
2023/03/05 05:47:18;;;;;;;10.15;2.63;;;9.40;99.90;;;;;;5094505;28;20433;-67
2023/03/05 05:49:45;;;;;;;12.90;3.63;;;9.40;99.90;;;;;;5094516;28;20480;-68
2023/03/05 05:52:14;;;;;;;8.85;2.97;;;9.60;99.90;;;;;;5092829;28;20043;-68
2023/03/05 05:54:40;;;;;;;7.88;2.78;;;9.60;99.90;;;;;;5094284;28;20116;-65
2023/03/05 05:57:08;;;;;;;5.70;2.63;;;9.70;99.90;;;;;;5094275;28;20028;-67
2023/03/05 05:59:35;;;;;;;10.35;3.63;;;9.70;99.90;;;;;;5094140;28;20023;-68
2023/03/05 06:02:02;;;;;;;11.68;3.05;;;9.80;99.90;;;;;;5092593;28;20388;-68
2023/03/05 06:04:28;;;;;;;19.10;5.10;;;10.30;99.90;;;;;;5092690;28;20056;-68
2023/03/05 06:06:54;;;;;;;11.63;3.20;;;11.20;99.90;;;;;;5094432;28;20016;-68
2023/03/05 06:09:20;;;;;;;10.57;2.93;;;12.20;99.90;;;;;;5092921;28;20615;-68
2023/03/05 06:11:46;;;;;;;10.37;2.40;;;13.40;99.90;;;;;;5093783;28;20099;-67
2023/03/05 06:14:16;;;;;;;8.13;2.20;;;14.20;99.90;;;;;;5094386;28;20020;-68
2023/03/05 06:16:42;;;;;;;11.02;2.25;;;15.20;99.90;;;;;;5093846;28;20058;-68
2023/03/05 06:19:12;;;;;;;9.03;2.07;;;15.50;99.90;;;;;;5094201;28;20056;-67
2023/03/05 06:21:39;;;;;;;7.32;1.70;;;16.00;99.90;;;;;;5091328;28;20035;-68
2023/03/05 06:24:08;;;;;;;10.65;2.88;;;16.60;99.90;;;;;;5093943;28;20071;-68
2023/03/05 06:26:36;;;;;;;6.78;2.03;;;17.10;99.90;;;;;;5093556;28;20024;-66
2023/03/05 06:29:03;;;;;;;10.07;1.95;;;17.90;99.90;;;;;;5093802;28;20032;-69
2023/03/05 06:31:29;;;;;;;4.72;2.03;;;18.40;99.90;;;;;;5092185;28;20020;-69
2023/03/05 06:33:57;;;;;;;15.77;2.00;;;18.70;99.90;;;;;;5093440;28;20051;-69
2023/03/05 06:36:24;;;;;;;9.07;2.15;;;19.30;99.90;;;;;;5093449;28;20023;-69
2023/03/05 06:38:51;;;;;;;;;;;19.80;99.90;;;;;;5093758;28;20027;-70
2023/03/05 06:41:21;;;;;;;6.18;1.85;;;19.80;99.90;;;;;;5093099;28;20284;-68
2023/03/05 06:43:48;;;;;;;7.50;1.48;;;19.90;99.90;;;;;;5074376;28;20400;-68
2023/03/05 06:46:17;;;;;;;;;;;20.60;99.90;;;;;;5093309;28;20101;-69
2023/03/05 06:48:44;;;;;;;8.07;1.77;;;20.40;99.90;;;;;;5092847;28;19911;-68
2023/03/05 06:51:14;;;;;;;;;;;20.90;99.90;;;;;;5092972;28;20058;-69
2023/03/05 06:53:40;;;;;;;13.10;2.00;;;21.30;99.90;;;;;;5092651;28;19957;-68
2023/03/05 06:56:06;;;;;;;6.30;1.63;;;20.90;99.90;;;;;;5092354;28;20133;-68
2023/03/05 06:58:32;;;;;;;10.38;1.92;;;21.40;99.90;;;;;;5092232;28;20070;-67
2023/03/05 07:00:58;;;;;;;7.75;1.75;;;21.50;99.90;;;;;;5092143;28;20035;-68
2023/03/05 07:03:24;;;;;;;8.93;1.67;;;21.80;99.90;;;;;;5092000;28;20058;-70
2023/03/05 07:05:50;;;;;;;6.90;2.00;;;21.60;99.90;;;;;;5091092;28;20115;-68
2023/03/05 07:08:16;;;;;;;8.50;1.70;;;21.80;99.90;;;;;;5092165;28;20425;-69
2023/03/05 07:10:43;;;;;;;7.35;1.50;;;22.20;99.90;;;;;;5092236;28;20064;-69
2023/03/05 07:13:09;;;;;;;6.38;1.90;;;22.50;99.90;;;;;;5092029;28;20464;-69
2023/03/05 07:15:41;;;;;;;4.13;1.38;;;22.40;99.90;;;;;;5091087;28;20028;-69
2023/03/05 07:18:07;;;;;;;6.93;1.70;;;22.40;99.90;;;;;;5092869;28;20024;-69
2023/03/05 07:20:34;;;;;;;9.25;1.85;;;22.70;99.90;;;;;;5092288;28;20060;-69
2023/03/05 07:23:03;;;;;;;8.63;1.50;;;22.60;99.90;;;;;;5090943;28;20040;-64
2023/03/05 07:25:31;;;;;;;4.95;1.50;;;22.70;99.90;;;;;;5072410;28;20020;-69
2023/03/05 07:27:57;;;;;;;4.03;1.52;;;22.60;99.90;;;;;;5071135;28;20037;-69
2023/03/05 07:30:24;;;;;;;11.75;1.73;;;22.30;99.90;;;;;;5070679;28;20480;-69
2023/03/05 07:32:50;;;;;;;5.78;1.35;;;22.30;99.90;;;;;;5071697;28;20032;-69
2023/03/05 07:35:16;;;;;;;6.65;1.63;;;22.80;99.90;;;;;;5072011;28;20391;-72
2023/03/05 07:37:43;;;;;;;6.57;1.55;;;23.50;99.90;;;;;;5072273;28;20032;-69
2023/03/05 07:40:11;;;;;;;8.32;1.80;;;23.70;99.90;;;;;;5072214;28;20425;-69
2023/03/05 07:42:37;;;;;;;4.78;1.50;;;23.70;99.90;;;;;;5070588;28;20063;-68
2023/03/05 07:45:08;;;;;;;8.85;1.70;;;23.70;99.90;;;;;;5071135;28;20052;-71
2023/03/05 07:47:35;;;;;;;7.75;1.58;;;23.50;99.90;;;;;;5072337;28;20506;-67
2023/03/05 07:50:02;;;;;;;8.70;2.15;;;23.00;99.90;;;;;;5072608;28;20031;-72
2023/03/05 07:52:29;;;;;;;4.60;1.48;;;22.00;99.90;;;;;;5072189;28;20112;-72
2023/03/05 07:54:55;;;;;;;5.93;1.90;;;20.90;99.90;;;;;;5086513;28;20069;-70
2023/03/05 07:57:21;;;;;;;5.45;1.70;;;19.80;99.90;;;;;;5092348;28;20047;-68
2023/03/05 07:59:47;;;;;;;6.93;1.58;;;19.50;99.90;;;;;;5092211;28;20050;-69
2023/03/05 08:02:13;;;;;;;6.45;1.77;;;19.30;99.90;;;;;;5090571;28;20039;-70
2023/03/05 08:04:41;;;;;;;7.38;1.60;;;18.70;99.90;;;;;;5091963;28;20055;-71
2023/03/05 08:07:08;;;;;;;6.40;1.73;;;18.70;99.90;;;;;;5090817;28;20463;-70
2023/03/05 08:09:35;;;;;;;9.10;2.10;;;18.50;99.90;;;;;;5092552;28;20048;-70
2023/03/05 08:12:06;;;;;;;5.22;1.75;;;18.40;99.90;;;;;;5091914;28;20029;-69
2023/03/05 08:14:33;;;;;;;4.97;1.67;;;18.30;99.90;;;;;;5092328;28;20468;-69
2023/03/05 08:16:59;;;;;;;4.38;1.52;;;18.40;99.90;;;;;;5092183;28;20024;-69
2023/03/05 08:19:26;;;;;;;5.32;1.63;;;17.90;99.90;;;;;;5092248;28;20020;-69
2023/03/05 08:21:52;;;;;;;4.93;1.45;;;17.90;99.90;;;;;;5092229;28;20043;-69
2023/03/05 08:24:18;;;;;;;7.05;1.58;;;18.10;99.90;;;;;;5092179;28;20024;-69
2023/03/05 08:26:44;;;;;;;7.97;1.50;;;18.40;99.90;;;;;;5092011;28;20024;-69
2023/03/05 08:29:10;;;;;;;9.45;1.65;;;18.30;99.90;;;;;;5092540;28;20035;-69
2023/03/05 08:31:37;;;;;;;6.53;1.48;;;18.50;99.90;;;;;;5091611;28;20089;-69
2023/03/05 08:34:05;;;;;;;4.47;1.38;;;18.70;99.90;;;;;;5091506;28;20081;-70
2023/03/05 08:36:31;;;;;;;4.60;1.20;;;18.60;99.90;;;;;;5092004;28;20101;-69
2023/03/05 08:38:58;;;;;;;7.68;1.70;;;18.80;99.90;;;;;;5091969;28;20035;-69
2023/03/05 08:41:26;;;;;;;5.10;1.50;;;18.80;99.90;;;;;;5091593;28;20032;-69
2023/03/05 08:43:52;;;;;;;5.22;1.50;;;18.50;99.90;;;;;;5091839;28;20130;-69
2023/03/05 08:46:18;;;;;;;4.38;1.40;;;18.50;99.90;;;;;;5095153;28;20028;-69
2023/03/05 08:48:44;;;;;;;7.10;1.70;;;18.80;99.90;;;;;;5095903;28;20465;-70
2023/03/05 08:51:14;;;;;;;5.97;1.30;;;18.90;99.90;;;;;;5095667;28;20027;-68
2023/03/05 08:53:41;;;;;;;5.60;1.98;;;18.60;99.90;;;;;;5096023;28;20024;-69
2023/03/05 08:56:07;;;;;;;7.72;2.10;;;18.70;99.90;;;;;;5095936;28;20473;-69
2023/03/05 08:58:33;;;;;;;4.53;1.42;;;18.70;99.90;;;;;;5095899;28;20028;-69
2023/03/05 09:01:00;;;;;;;7.10;1.52;;;18.70;99.90;;;;;;5095983;28;20024;-70
2023/03/05 09:03:26;;;;;;;5.70;1.60;;;18.80;99.90;;;;;;5095180;28;20031;-70
2023/03/05 09:05:52;;;;;;;6.57;1.63;;;18.70;99.90;;;;;;5095344;28;20151;-71
2023/03/05 09:08:18;;;;;;;4.78;1.20;;;18.60;99.90;;;;;;5094014;28;20028;-69
2023/03/05 09:10:45;;;;;;;5.85;1.67;;;18.30;99.90;;;;;;5095058;28;20375;-70
2023/03/05 09:13:11;;;;;;;;;;;18.40;99.90;;;;;;5095364;28;20093;-69
2023/03/05 09:15:38;;;;;;;9.40;1.73;;;18.60;99.90;;;;;;5095324;28;19908;-70
2023/03/05 09:18:05;;;;;;;5.00;1.40;;;18.60;99.90;;;;;;5095519;28;20032;-71
2023/03/05 09:20:32;;;;;;;6.88;1.70;;;18.20;99.90;;;;;;5094797;28;20026;-69
2023/03/05 09:22:58;;;;;;;5.57;1.33;;;18.50;99.90;;;;;;5094831;28;20032;-65
2023/03/05 09:25:25;;;;;;;6.68;1.88;;;18.00;99.90;;;;;;5094885;28;20020;-66
2023/03/05 09:27:55;;;;;;;7.75;1.65;;;17.70;99.90;;;;;;5094558;28;20028;-66
2023/03/05 09:30:24;;;;;;;4.88;1.40;;;17.70;99.90;;;;;;5093500;28;20020;-65
2023/03/05 09:32:50;;;;;;;4.22;1.50;;;17.90;99.90;;;;;;5094869;28;20027;-65
2023/03/05 09:35:17;;;;;;;6.80;1.73;;;17.70;99.90;;;;;;5094561;28;20057;-69
2023/03/05 09:37:43;;;;;;;8.35;2.05;;;17.50;99.90;;;;;;5093681;28;20036;-70
2023/03/05 09:40:15;;;;;;;7.35;1.98;;;18.00;99.90;;;;;;5095311;28;20051;-70
2023/03/05 09:43:02;;;;;;;7.45;1.60;;;18.20;99.90;;;;;;5094403;28;20487;-69
2023/03/05 09:45:46;;;;;;;4.97;1.65;;;17.90;99.90;;;;;;5095032;28;20472;-69
2023/03/05 09:48:23;;;;;;;4.40;1.67;;;18.10;99.90;;;;;;5095229;28;20372;-69
2023/03/05 09:51:14;;;;;;;4.32;1.52;;;18.20;99.90;;;;;;5092905;28;20032;-69
2023/03/05 09:53:49;;;;;;;3.92;1.75;;;17.70;99.90;;;;;;5094435;28;20099;-69
2023/03/05 09:56:25;;;;;;;4.40;1.35;;;17.40;99.90;;;;;;5094000;28;20063;-69
2023/03/05 09:59:22;;;;;;;7.05;2.15;;;17.00;99.90;;;;;;5093981;28;20024;-69
2023/03/05 10:01:48;;;;;;;7.60;2.00;;;17.00;99.90;;;;;;5093293;28;20028;-68
2023/03/05 10:04:15;;;;;;;;;;;17.00;99.90;;;;;;5094471;28;20024;-69
2023/03/05 10:07:21;;;;;;;6.95;2.15;;;17.00;99.90;;;;;;5094004;28;20375;-68
2023/03/05 10:10:08;;;;;;;6.88;1.80;;;16.80;99.90;;;;;;5093288;28;20089;-69
2023/03/05 10:12:45;;;;;;;5.05;2.03;;;16.60;99.90;;;;;;5093423;28;20021;-70
2023/03/05 10:15:20;;;;;;;9.25;2.00;;;16.40;99.90;;;;;;5093796;28;20028;-69
2023/03/05 10:18:13;;;;;;;7.55;2.78;;;16.40;99.90;;;;;;5093469;28;20398;-68
2023/03/05 10:20:51;;;;;;;5.85;2.13;;;16.40;99.90;;;;;;5094207;28;20107;-70
2023/03/05 10:23:57;;;;;;;5.10;2.00;;;16.60;99.90;;;;;;5092380;28;20404;-66
2023/03/05 10:26:48;;;;;;;6.45;2.10;;;16.60;99.90;;;;;;5093956;28;20021;-70
2023/03/05 10:29:47;;;;;;;7.93;2.50;;;16.50;99.90;;;;;;5094334;28;20405;-67
2023/03/05 10:32:40;;;;;;;6.90;2.40;;;16.40;99.90;;;;;;5094239;28;20088;-69
2023/03/05 10:35:31;;;;;;;5.20;2.15;;;16.30;99.90;;;;;;5094042;28;20051;-69
2023/03/05 10:38:17;;;;;;;8.80;2.00;;;16.60;99.90;;;;;;5094166;28;20452;-68
2023/03/05 10:40:51;;;;;;;7.68;2.38;;;16.80;99.90;;;;;;5072470;28;20036;-69
2023/03/05 10:43:47;;;;;;;6.40;1.80;;;16.90;99.90;;;;;;5093355;28;20189;-69
2023/03/05 10:46:19;;;;;;;7.22;1.90;;;17.10;99.90;;;;;;5092077;28;20215;-70
2023/03/05 10:49:00;;;;;;;5.80;1.55;;;17.50;99.90;;;;;;5093678;28;20472;-69
2023/03/05 10:51:50;;;;;;;6.65;1.63;;;17.70;99.90;;;;;;5091963;28;20333;-70
2023/03/05 10:54:28;;;;;;;5.68;1.70;;;17.80;99.90;;;;;;5092027;28;20119;-70
2023/03/05 10:57:17;;;;;;;2.75;1.42;;;17.60;99.90;;;;;;5092829;28;20081;-70
2023/03/05 10:59:53;;;;;;;8.25;2.30;;;17.80;99.90;;;;;;5093247;28;20393;-70
2023/03/05 11:02:21;;;;;;;4.75;1.70;;;17.60;99.90;;;;;;5092653;28;20079;-68
2023/03/05 11:04:49;;;;;;;3.80;1.42;;;17.60;99.90;;;;;;5092524;28;20028;-67
2023/03/05 11:07:15;;;;;;;8.65;1.50;;;17.80;99.90;;;;;;5092345;28;20020;-67
2023/03/05 11:09:42;;;;;;;10.93;1.90;;;17.90;99.90;;;;;;5092251;28;20114;-69
2023/03/05 11:12:26;;;;;;;4.15;1.65;;;17.30;99.90;;;;;;5092601;28;20254;-67
2023/03/05 11:15:13;;;;;;;6.50;1.23;;;17.40;99.90;;;;;;5092955;28;20584;-67
2023/03/05 11:18:02;;;;;;;6.50;1.40;;;17.10;99.90;;;;;;5092739;28;20095;-67
2023/03/05 11:20:30;;;;;;;7.18;1.30;;;17.40;99.90;;;;;;5092825;28;20073;-68
2023/03/05 11:23:14;;;;;;;8.23;1.70;;;17.40;99.90;;;;;;5092977;28;20111;-69
2023/03/05 11:26:12;;;;;;;6.78;1.60;;;17.60;99.90;;;;;;5092539;28;20135;-69
2023/03/05 11:29:00;;;;;;;18.50;2.13;;;17.30;99.90;;;;;;5050090;28;20099;-67
2023/03/05 11:31:30;;;;;;;4.15;1.70;;;17.00;99.90;;;;;;5049713;28;20029;-68
2023/03/05 11:34:03;;;;;;;7.07;2.00;;;16.90;99.90;;;;;;5033309;28;20151;-69
2023/03/05 11:36:41;;;;;;;8.30;2.03;;;16.60;99.90;;;;;;5049760;28;20108;-67
2023/03/05 11:39:07;;;;;;;4.65;2.03;;;16.40;99.90;;;;;;5049854;28;20224;-67
2023/03/05 11:41:38;;;;;;;5.10;1.40;;;16.10;99.90;;;;;;5032935;28;20041;-68
2023/03/05 11:44:21;;;;;;;4.00;1.33;;;15.30;99.90;;;;;;5032786;28;20041;-68
2023/03/05 11:47:12;;;;;;;2.38;1.20;;;14.30;99.90;;;;;;5049777;28;20052;-66
2023/03/05 11:49:45;;;;;;;4.40;2.05;;;13.40;99.90;;;;;;5042502;28;20516;-68
2023/03/05 11:52:22;;;;;;;2.47;1.30;;;12.80;99.90;;;;;;5049693;28;20045;-69
2023/03/05 11:54:55;;;;;;;;;;;12.60;99.90;;;;;;5049689;28;20040;-67
2023/03/05 11:57:23;;;;;;;6.95;1.98;;;12.80;99.90;;;;;;5049160;28;20328;-68
2023/03/05 11:59:54;;;;;;;5.63;3.78;;;12.90;99.90;;;;;;5032914;28;20042;-68
2023/03/05 12:02:24;;;;;;;3.35;1.40;;;12.80;99.90;;;;;;5050034;28;20124;-67
2023/03/05 12:04:50;;;;;;;3.97;1.73;;;12.70;99.90;;;;;;5056817;28;20145;-68
2023/03/05 12:07:34;;;;;;;5.55;2.00;;;12.90;99.90;;;;;;5072210;28;20029;-69
2023/03/05 12:10:01;;;;;;;4.80;1.85;;;13.10;99.90;;;;;;5072339;28;20033;-68
2023/03/05 12:12:43;;;;;;;9.88;3.95;;;13.40;99.90;;;;;;5071598;28;20029;-68
2023/03/05 12:15:18;;;;;;;8.20;4.20;;;13.50;99.90;;;;;;5071893;28;20102;-68
2023/03/05 12:18:22;;;;;;;11.35;4.72;;;13.50;99.90;;;;;;5072583;28;20021;-70
2023/03/05 12:20:56;;;;;;;8.52;2.90;;;13.60;99.90;;;;;;5076082;28;20103;-70
2023/03/05 12:23:22;;;;;;;4.47;2.10;;;13.60;99.90;;;;;;5077393;28;20377;-80
2023/03/05 12:25:55;;;;;;;6.03;2.28;;;13.50;99.90;;;;;;5096322;28;20480;-76
2023/03/05 12:28:33;;;;;;;10.07;2.60;;;13.30;99.90;;;;;;5096199;28;20028;-76
2023/03/05 12:31:17;;;;;;;8.48;3.40;;;13.20;99.90;;;;;;5096013;28;20399;-75
2023/03/05 12:33:43;;;;;;;10.35;3.50;;;13.30;99.90;;;;;;5094443;28;20025;-74
2023/03/05 12:36:21;;;;;;;6.57;3.73;;;13.30;99.90;;;;;;5087284;28;20214;-74
2023/03/05 12:38:52;;;;;;;12.20;4.63;;;13.10;99.90;;;;;;5076209;28;20059;-74
2023/03/05 12:41:24;;;;;;;8.45;4.10;;;13.00;99.90;;;;;;5076065;28;20145;-73
2023/03/05 12:44:05;;;;;;;13.38;5.00;;;13.20;99.90;;;;;;5075381;28;20048;-74
2023/03/05 12:47:26;;;;;;;9.32;4.60;;;13.40;99.90;;;;;;5075865;28;20385;-74
2023/03/05 12:49:52;;;;;;;11.57;4.57;;;13.60;99.90;;;;;;5013887;28;20137;-74
2023/03/05 12:52:25;;;;;;;9.87;4.90;;;13.80;99.90;;;;;;5013798;28;20065;-73
2023/03/05 12:55:15;;;;;;;13.43;5.30;;;13.90;99.90;;;;;;5026731;28;20037;-77
2023/03/05 12:57:44;;;;;;;17.38;5.55;;;14.10;99.90;;;;;;5049602;28;20069;-77
2023/03/05 13:00:21;;;;;;;12.48;5.15;;;14.30;99.90;;;;;;5050062;28;20115;-76
2023/03/05 13:02:54;;;;;;;11.70;5.28;;;14.30;99.90;;;;;;5016744;28;20029;-77
2023/03/05 13:05:30;;;;;;;14.65;5.95;;;14.30;99.90;;;;;;5033871;28;20040;-76
2023/03/05 13:08:25;;;;;;;15.18;5.10;;;14.30;99.90;;;;;;5033503;28;20061;-77
2023/03/05 13:11:00;;;;;;;10.88;4.82;;;14.40;99.90;;;;;;5033417;28;20032;-77